HAF212 LGSA-LGSA
Flight info
| Callsign | HAF212 |
|---|---|
| Flight time | 0h 34m |
| Altitude | 3000 |
| Route | PLH |
| Aircraft | CL41/M-GPS/C |
Departure
| Time | 2026-05-04 09:01 |
|---|---|
| Airport | Chania International Airport (LGSA) |
Arrival
| Time | 2026-05-04 09:35 |
|---|---|
| Airport | Chania International Airport (LGSA) |
| Time | Latitude | Longitude | Altitude | Speed | Heading |
|---|---|---|---|---|---|
| 2026-05-04 08:49 | 35.53704 | 24.14494 | 489 ft | 0 kts | 112° |
| 2026-05-04 08:55 | 35.53683 | 24.14490 | 485 ft | 13 kts | 224° |
| 2026-05-04 08:55 | 35.53712 | 24.14299 | 489 ft | 32 kts | 289° |
| 2026-05-04 08:57 | 35.53204 | 24.14982 | 579 ft | 127 kts | 105° |
| 2026-05-04 09:01 | 35.41432 | 24.18835 | 3473 ft | 133 kts | 185° |
| 2026-05-04 09:01 | 35.40529 | 24.18821 | 3661 ft | 135 kts | 184° |
| 2026-05-04 09:01 | 35.39569 | 24.18856 | 3792 ft | 142 kts | 181° |
| 2026-05-04 09:01 | 35.38563 | 24.18911 | 3887 ft | 144 kts | 181° |
| 2026-05-04 09:02 | 35.37560 | 24.18951 | 3984 ft | 148 kts | 181° |
| 2026-05-04 09:02 | 35.36522 | 24.19031 | 4076 ft | 150 kts | 180° |
| 2026-05-04 09:02 | 35.35494 | 24.19012 | 4181 ft | 149 kts | 186° |
| 2026-05-04 09:02 | 35.34440 | 24.18976 | 4250 ft | 156 kts | 182° |
| 2026-05-04 09:03 | 35.33347 | 24.18997 | 4325 ft | 158 kts | 182° |
| 2026-05-04 09:03 | 35.32235 | 24.18929 | 4392 ft | 161 kts | 185° |
| 2026-05-04 09:03 | 35.31114 | 24.18848 | 4394 ft | 160 kts | 184° |
| 2026-05-04 09:03 | 35.30004 | 24.18761 | 4312 ft | 162 kts | 189° |
| 2026-05-04 09:04 | 35.28905 | 24.18557 | 4261 ft | 157 kts | 194° |
| 2026-05-04 09:04 | 35.27836 | 24.18234 | 4219 ft | 158 kts | 199° |
| 2026-05-04 09:04 | 35.26790 | 24.17861 | 4297 ft | 152 kts | 201° |
| 2026-05-04 09:04 | 35.25824 | 24.17437 | 4306 ft | 146 kts | 209° |
| 2026-05-04 09:05 | 35.24948 | 24.16875 | 4254 ft | 138 kts | 229° |
| 2026-05-04 09:05 | 35.24357 | 24.16010 | 4045 ft | 128 kts | 251° |
| 2026-05-04 09:05 | 35.23918 | 24.15071 | 3965 ft | 131 kts | 243° |
| 2026-05-04 09:05 | 35.23507 | 24.14084 | 3897 ft | 129 kts | 254° |
| 2026-05-04 09:06 | 35.23257 | 24.13060 | 3820 ft | 123 kts | 265° |
| 2026-05-04 09:07 | 35.22338 | 24.05338 | 3723 ft | 144 kts | 278° |
| 2026-05-04 09:08 | 35.22419 | 24.04124 | 3696 ft | 140 kts | 276° |
| 2026-05-04 09:08 | 35.22524 | 24.02945 | 3685 ft | 139 kts | 281° |
| 2026-05-04 09:08 | 35.22669 | 24.01760 | 3636 ft | 142 kts | 283° |
| 2026-05-04 09:08 | 35.22884 | 24.00596 | 3696 ft | 136 kts | 283° |
| 2026-05-04 09:09 | 35.23077 | 23.99447 | 3711 ft | 133 kts | 284° |
| 2026-05-04 09:09 | 35.23245 | 23.98307 | 3776 ft | 139 kts | 277° |
| 2026-05-04 09:09 | 35.23338 | 23.97130 | 3912 ft | 138 kts | 276° |
| 2026-05-04 09:09 | 35.23415 | 23.95931 | 3992 ft | 141 kts | 277° |
| 2026-05-04 09:10 | 35.23472 | 23.94709 | 4030 ft | 144 kts | 277° |
| 2026-05-04 09:10 | 35.23489 | 23.94443 | 4050 ft | 143 kts | 277° |
| 2026-05-04 09:10 | 35.23492 | 23.94402 | 4053 ft | 141 kts | 276° |
| 2026-05-04 09:11 | 35.23569 | 23.93206 | 4069 ft | 144 kts | 276° |
| 2026-05-04 09:11 | 35.23674 | 23.92004 | 4152 ft | 141 kts | 282° |
| 2026-05-04 09:11 | 35.23811 | 23.90807 | 4176 ft | 145 kts | 279° |
| 2026-05-04 09:11 | 35.23977 | 23.89592 | 4079 ft | 145 kts | 281° |
| 2026-05-04 09:12 | 35.24148 | 23.88372 | 4023 ft | 148 kts | 282° |
| 2026-05-04 09:12 | 35.24274 | 23.87132 | 4070 ft | 148 kts | 278° |
| 2026-05-04 09:14 | 35.24108 | 23.77965 | 3770 ft | 152 kts | 272° |
| 2026-05-04 09:14 | 35.24093 | 23.76648 | 3684 ft | 157 kts | 271° |
| 2026-05-04 09:14 | 35.24075 | 23.75324 | 3643 ft | 158 kts | 275° |
| 2026-05-04 09:14 | 35.24103 | 23.73987 | 3627 ft | 153 kts | 277° |
| 2026-05-04 09:15 | 35.24183 | 23.72729 | 3814 ft | 148 kts | 285° |
| 2026-05-04 09:15 | 35.24349 | 23.71486 | 3785 ft | 150 kts | 284° |
| 2026-05-04 09:15 | 35.24400 | 23.70167 | 3639 ft | 157 kts | 275° |
| 2026-05-04 09:15 | 35.24583 | 23.68943 | 3540 ft | 139 kts | 316° |
| 2026-05-04 09:17 | 35.31485 | 23.71016 | 3407 ft | 138 kts | 16° |
| 2026-05-04 09:18 | 35.32384 | 23.71391 | 3445 ft | 137 kts | 18° |
| 2026-05-04 09:18 | 35.33319 | 23.71732 | 3382 ft | 139 kts | 6° |
| 2026-05-04 09:18 | 35.34280 | 23.71667 | 3299 ft | 141 kts | 346° |
| 2026-05-04 09:18 | 35.35199 | 23.71342 | 3300 ft | 136 kts | 348° |
| 2026-05-04 09:19 | 35.36129 | 23.71113 | 3215 ft | 138 kts | 343° |
| 2026-05-04 09:19 | 35.36969 | 23.70565 | 3175 ft | 140 kts | 329° |
| 2026-05-04 09:19 | 35.37165 | 23.70419 | 3116 ft | 142 kts | 330° |
| 2026-05-04 09:20 | 35.37654 | 23.70048 | 2959 ft | 150 kts | 327° |
| 2026-05-04 09:20 | 35.38515 | 23.69326 | 2866 ft | 148 kts | 321° |
| 2026-05-04 09:20 | 35.39265 | 23.68514 | 2894 ft | 141 kts | 316° |
| 2026-05-04 09:21 | 35.39937 | 23.67652 | 2893 ft | 142 kts | 313° |
| 2026-05-04 09:21 | 35.40541 | 23.66700 | 2891 ft | 137 kts | 305° |
| 2026-05-04 09:21 | 35.41032 | 23.65674 | 2887 ft | 140 kts | 309° |
| 2026-05-04 09:21 | 35.41728 | 23.64899 | 2935 ft | 135 kts | 336° |
| 2026-05-04 09:22 | 35.42654 | 23.64705 | 2825 ft | 137 kts | 2° |
| 2026-05-04 09:22 | 35.43539 | 23.65145 | 2815 ft | 142 kts | 36° |
| 2026-05-04 09:22 | 35.44108 | 23.66158 | 2769 ft | 148 kts | 61° |
| 2026-05-04 09:22 | 35.44509 | 23.67289 | 2844 ft | 145 kts | 64° |
| 2026-05-04 09:23 | 35.44866 | 23.68438 | 2791 ft | 147 kts | 66° |
| 2026-05-04 09:23 | 35.45197 | 23.69660 | 2740 ft | 149 kts | 69° |
| 2026-05-04 09:23 | 35.45518 | 23.70836 | 2730 ft | 147 kts | 67° |
| 2026-05-04 09:23 | 35.45876 | 23.72020 | 2671 ft | 149 kts | 65° |
| 2026-05-04 09:25 | 35.48681 | 23.79688 | 1974 ft | 133 kts | 54° |
| 2026-05-04 09:25 | 35.49049 | 23.80721 | 1930 ft | 135 kts | 69° |
| 2026-05-04 09:26 | 35.49125 | 23.81901 | 1825 ft | 139 kts | 81° |
| 2026-05-04 09:26 | 35.49146 | 23.83086 | 1763 ft | 139 kts | 83° |
| 2026-05-04 09:26 | 35.49297 | 23.84249 | 1686 ft | 138 kts | 69° |
| 2026-05-04 09:26 | 35.49479 | 23.85432 | 1531 ft | 142 kts | 74° |
| 2026-05-04 09:27 | 35.49646 | 23.86593 | 1503 ft | 133 kts | 71° |
| 2026-05-04 09:27 | 35.49880 | 23.87695 | 1479 ft | 135 kts | 76° |
| 2026-05-04 09:27 | 35.50123 | 23.88814 | 1451 ft | 136 kts | 70° |
| 2026-05-04 09:27 | 35.50388 | 23.89961 | 1357 ft | 137 kts | 71° |
| 2026-05-04 09:28 | 35.50661 | 23.91072 | 1317 ft | 139 kts | 71° |
| 2026-05-04 09:28 | 35.50922 | 23.92207 | 1293 ft | 138 kts | 75° |
| 2026-05-04 09:28 | 35.51031 | 23.93386 | 1280 ft | 140 kts | 83° |
| 2026-05-04 09:28 | 35.51103 | 23.94582 | 1306 ft | 141 kts | 81° |
| 2026-05-04 09:29 | 35.51307 | 23.95751 | 1353 ft | 139 kts | 73° |
| 2026-05-04 09:29 | 35.51550 | 23.96887 | 1368 ft | 138 kts | 65° |
| 2026-05-04 09:29 | 35.51682 | 23.97269 | 1315 ft | 139 kts | 62° |
| 2026-05-04 09:30 | 35.52185 | 23.98619 | 1053 ft | 144 kts | 62° |
| 2026-05-04 09:30 | 35.52450 | 23.99313 | 1140 ft | 132 kts | 60° |
| 2026-05-04 09:30 | 35.52882 | 24.00263 | 992 ft | 120 kts | 53° |
| 2026-05-04 09:31 | 35.53409 | 24.01399 | 966 ft | 109 kts | 55° |
| 2026-05-04 09:31 | 35.53660 | 24.01939 | 1067 ft | 109 kts | 53° |
| 2026-05-04 09:31 | 35.54069 | 24.02778 | 957 ft | 115 kts | 52° |
| 2026-05-04 09:31 | 35.54487 | 24.03572 | 885 ft | 106 kts | 52° |
| 2026-05-04 09:32 | 35.54835 | 24.04327 | 941 ft | 103 kts | 57° |
| 2026-05-04 09:32 | 35.55156 | 24.05134 | 1079 ft | 107 kts | 60° |
| 2026-05-04 09:34 | 35.54227 | 24.11781 | 851 ft | 127 kts | 108° |
| 2026-05-04 09:34 | 35.53894 | 24.12772 | 679 ft | 124 kts | 109° |
| 2026-05-04 09:34 | 35.53587 | 24.13713 | 510 ft | 109 kts | 109° |
| 2026-05-04 09:34 | 35.53355 | 24.14433 | 490 ft | 72 kts | 111° |
| 2026-05-04 09:35 | 35.53256 | 24.14928 | 487 ft | 49 kts | 103° |
| 2026-05-04 09:35 | 35.53298 | 24.15156 | 494 ft | 16 kts | 331° |
| 2026-05-04 09:35 | 35.53372 | 24.14952 | 492 ft | 36 kts | 294° |
| 2026-05-04 09:35 | 35.53445 | 24.14723 | 494 ft | 21 kts | 293° |
| 2026-05-04 09:37 | 35.53647 | 24.14469 | 488 ft | 0 kts | 108° |